Time;durP1;ratioP1;P1;durP2;ratioP2;P2;SDS_P1;SDS_P2;PMS_P1;PMS_P2;Temp;Humidity;BMP_temperature;BMP_pressure;BME280_temperature;BME280_humidity;BME280_pressure;Samples;Min_cycle;Max_cycle;Signal;HPM_P1;HPM_P2
2021/09/09 00:00:58;;;;;;;16.07;14.37;;;;;;;15.76;75.61;100670.63;5046380;28;20225;-74
2021/09/09 00:03:24;;;;;;;17.23;15.43;;;;;;;15.73;75.73;100661.00;5039809;28;20226;-74
2021/09/09 00:05:51;;;;;;;15.10;13.50;;;;;;;15.73;76.01;100654.75;5043540;28;20225;-74
2021/09/09 00:08:19;;;;;;;16.20;14.00;;;;;;;15.74;75.99;100659.16;5043834;28;20679;-72
2021/09/09 00:10:45;;;;;;;15.00;13.50;;;;;;;15.75;75.89;100652.81;5041161;28;20202;-74
2021/09/09 00:13:12;;;;;;;17.20;14.73;;;;;;;15.76;76.17;100655.38;5042053;28;20216;-74
2021/09/09 00:15:39;;;;;;;15.33;13.67;;;;;;;15.78;76.00;100650.69;5040587;28;20266;-72
2021/09/09 00:18:05;;;;;;;16.23;13.60;;;;;;;15.78;76.00;100658.75;5039424;28;20203;-73
2021/09/09 00:20:32;;;;;;;15.37;13.77;;;;;;;15.75;76.14;100648.28;5036770;28;20199;-72
2021/09/09 00:22:58;;;;;;;15.73;12.50;;;;;;;15.68;75.47;100636.34;5040815;28;20247;-73
2021/09/09 00:25:26;;;;;;;16.20;13.80;;;;;;;15.51;74.97;100644.94;5041865;28;20206;-73
2021/09/09 00:27:53;;;;;;;15.77;13.10;;;;;;;15.42;75.09;100638.50;5043179;28;20207;-73
2021/09/09 00:30:19;;;;;;;14.93;13.03;;;;;;;15.36;75.71;100636.34;5041629;28;20251;-73
2021/09/09 00:32:46;;;;;;;16.80;14.13;;;;;;;15.36;75.59;100640.88;5040776;28;20206;-73
2021/09/09 00:35:13;;;;;;;15.20;13.40;;;;;;;15.34;75.59;100640.13;5042149;28;20211;-74
2021/09/09 00:37:39;;;;;;;14.70;13.00;;;;;;;15.33;75.97;100638.44;5041834;28;20734;-73
2021/09/09 00:40:07;;;;;;;14.10;12.60;;;;;;;15.32;75.83;100629.53;5040598;28;20575;-74
2021/09/09 00:42:35;;;;;;;15.03;13.23;;;;;;;15.29;75.92;100633.31;5042791;28;20209;-74
2021/09/09 00:45:02;;;;;;;13.57;12.10;;;;;;;15.26;75.95;100622.84;5040086;28;20210;-73
2021/09/09 00:47:28;;;;;;;15.70;13.17;;;;;;;15.25;75.83;100622.97;5041187;28;20627;-74
2021/09/09 00:49:55;;;;;;;15.70;13.73;;;;;;;15.21;75.76;100625.06;5039536;28;20206;-74
2021/09/09 00:52:21;;;;;;;15.43;13.83;;;;;;;15.18;76.23;100617.28;5041068;28;20209;-74
2021/09/09 00:54:49;;;;;;;15.07;13.20;;;;;;;15.17;75.79;100626.28;5040388;28;20213;-74
2021/09/09 00:57:17;;;;;;;16.93;13.90;;;;;;;15.14;75.79;100623.00;5042012;28;20225;-74
2021/09/09 00:59:45;;;;;;;14.73;11.43;;;;;;;15.07;75.60;100628.00;5043654;28;20236;-74
2021/09/09 01:02:12;;;;;;;14.63;12.70;;;;;;;14.98;74.94;100618.06;5041076;28;20202;-74
2021/09/09 01:04:39;;;;;;;15.70;12.97;;;;;;;14.82;74.54;100621.16;5043247;28;20229;-73
2021/09/09 01:07:06;;;;;;;15.17;13.00;;;;;;;14.68;74.49;100617.88;5042866;28;20403;-74
2021/09/09 01:09:32;;;;;;;15.40;13.80;;;;;;;14.56;74.66;100615.19;5038225;28;20197;-74
2021/09/09 01:11:59;;;;;;;15.13;13.57;;;;;;;14.48;75.83;100611.44;5042127;28;20218;-73
2021/09/09 01:14:26;;;;;;;15.87;14.20;;;;;;;14.44;76.08;100621.56;5040423;28;20198;-74
2021/09/09 01:16:54;;;;;;;15.23;13.63;;;;;;;14.43;76.28;100617.16;5045729;28;20294;-73
2021/09/09 01:19:20;;;;;;;16.97;14.63;;;;;;;14.45;76.92;100615.22;5037149;28;20213;-73
2021/09/09 01:21:47;;;;;;;17.47;15.20;;;;;;;14.47;77.63;100607.91;5037945;28;20690;-74
2021/09/09 01:24:15;;;;;;;19.43;16.20;;;;;;;14.55;78.04;100607.28;5039987;28;20233;-74
2021/09/09 01:26:54;;;;;;;16.97;14.63;;;;;;;14.58;78.31;100607.03;5045487;28;20226;-74
2021/09/09 01:29:22;;;;;;;18.30;15.17;;;;;;;14.62;78.23;100610.34;5039887;28;20218;-73
2021/09/09 01:31:49;;;;;;;22.30;15.40;;;;;;;14.64;78.62;100614.59;5039885;28;20760;-74
2021/09/09 01:34:16;;;;;;;15.90;14.20;;;;;;;14.65;78.75;100602.91;5041897;28;20206;-74
2021/09/09 01:36:42;;;;;;;15.57;13.47;;;;;;;14.65;78.61;100610.94;5039790;28;20218;-74
2021/09/09 01:39:09;;;;;;;15.63;14.03;;;;;;;14.65;78.52;100602.06;5037895;28;20206;-74
2021/09/09 01:41:38;;;;;;;15.47;13.80;;;;;;;14.65;78.58;100604.72;5043080;28;20214;-73
2021/09/09 01:44:05;;;;;;;18.83;15.23;;;;;;;14.61;78.17;100595.22;5042100;28;20221;-74
2021/09/09 01:46:31;;;;;;;21.27;15.13;;;;;;;14.56;78.57;100595.59;5041088;28;20217;-73
2021/09/09 01:48:58;;;;;;;17.50;14.10;;;;;;;14.51;78.51;100601.31;5042557;28;20213;-74
2021/09/09 01:51:26;;;;;;;17.03;14.60;;;;;;;14.49;78.41;100597.06;5043254;28;20197;-74
2021/09/09 01:53:53;;;;;;;15.70;14.10;;;;;;;14.46;78.60;100603.53;5039586;28;20267;-74
2021/09/09 01:56:20;;;;;;;15.93;14.30;;;;;;;14.45;78.23;100600.97;5039607;28;20226;-73
2021/09/09 01:58:48;;;;;;;16.33;14.73;;;;;;;14.43;78.35;100598.41;5039901;28;20683;-74
2021/09/09 02:01:15;;;;;;;20.10;14.90;;;;;;;14.42;78.90;100599.38;5042107;28;20217;-73
2021/09/09 02:03:41;;;;;;;15.87;14.13;;;;;;;14.41;78.39;100594.16;5037727;28;20233;-73
2021/09/09 02:06:08;;;;;;;14.47;12.77;;;;;;;14.36;78.35;100593.63;5037194;28;20229;-74
2021/09/09 02:08:34;;;;;;;16.43;14.33;;;;;;;14.32;78.83;100600.22;5040232;28;20688;-73
2021/09/09 02:11:01;;;;;;;17.67;14.43;;;;;;;14.30;79.08;100591.47;5038258;28;20213;-73
2021/09/09 02:13:27;;;;;;;16.70;13.90;;;;;;;14.28;78.89;100588.91;5039492;28;20209;-74
2021/09/09 02:15:55;;;;;;;15.67;14.00;;;;;;;14.29;78.80;100592.44;5040476;28;20228;-74
2021/09/09 02:18:22;;;;;;;18.40;15.23;;;;;;;14.28;79.29;100591.56;5036694;28;20209;-72
2021/09/09 02:20:48;;;;;;;20.17;14.57;;;;;;;14.30;79.20;100586.09;5040753;28;20217;-74
2021/09/09 02:23:15;;;;;;;17.80;14.23;;;;;;;14.30;78.79;100589.63;5038944;28;20210;-74
2021/09/09 02:25:42;;;;;;;16.53;11.93;;;;;;;14.24;78.71;100582.06;5041293;28;20234;-73
2021/09/09 02:28:08;;;;;;;15.57;13.70;;;;;;;14.13;78.27;100590.97;5034305;28;20683;-74
2021/09/09 02:30:35;;;;;;;14.73;13.17;;;;;;;14.06;77.94;100578.16;5041454;28;20689;-73
2021/09/09 02:33:03;;;;;;;16.10;14.10;;;;;;;14.00;78.44;100584.00;5040340;28;20584;-74
2021/09/09 02:35:30;;;;;;;14.70;13.07;;;;;;;13.97;78.30;100579.75;5043081;28;20203;-72
2021/09/09 02:37:56;;;;;;;15.73;13.73;;;;;;;13.95;78.57;100579.03;5038786;28;20198;-74
2021/09/09 02:40:23;;;;;;;16.80;14.80;;;;;;;13.96;78.58;100582.56;5035875;28;20210;-74
2021/09/09 02:42:50;;;;;;;15.77;14.13;;;;;;;13.95;78.64;100570.16;5041825;28;20213;-73
2021/09/09 02:45:16;;;;;;;17.77;13.60;;;;;;;13.95;78.75;100578.19;5036087;28;20236;-73
2021/09/09 02:47:43;;;;;;;16.70;14.20;;;;;;;13.93;78.65;100575.63;5035546;28;20202;-74
2021/09/09 02:50:12;;;;;;;17.20;13.90;;;;;;;13.89;78.73;100579.50;5039016;28;20202;-74
2021/09/09 02:52:38;;;;;;;16.83;14.80;;;;;;;13.85;78.47;100572.66;5036979;28;20586;-74
2021/09/09 02:55:06;;;;;;;15.97;13.97;;;;;;;13.84;78.79;100574.50;5037374;28;20804;-73
2021/09/09 02:57:32;;;;;;;17.80;15.03;;;;;;;13.83;79.12;100572.78;5048112;28;20216;-73
2021/09/09 02:59:59;;;;;;;20.43;15.37;;;;;;;13.81;79.29;100574.72;5036107;28;20571;-74
2021/09/09 03:02:25;;;;;;;17.43;15.53;;;;;;;13.79;79.64;100560.59;5033328;28;20676;-73
2021/09/09 03:04:52;;;;;;;18.30;15.63;;;;;;;13.78;79.62;100552.72;5040421;28;20217;-74
2021/09/09 03:07:20;;;;;;;17.60;15.50;;;;;;;13.77;79.86;100549.19;5041700;28;20230;-73
2021/09/09 03:09:46;;;;;;;16.10;14.10;;;;;;;13.73;79.79;100550.41;5041953;28;20293;-74
2021/09/09 03:12:13;;;;;;;14.73;13.23;;;;;;;13.70;79.49;100545.28;5045331;28;20210;-73
2021/09/09 03:14:40;;;;;;;16.27;14.53;;;;;;;13.68;79.58;100544.53;5049030;28;20210;-74
2021/09/09 03:17:06;;;;;;;19.43;15.70;;;;;;;13.61;79.05;100548.69;5045620;28;20882;-73
2021/09/09 03:19:33;;;;;;;16.67;14.87;;;;;;;13.55;79.13;100544.66;5049402;28;20565;-73
2021/09/09 03:21:59;;;;;;;19.80;14.17;;;;;;;13.51;79.46;100531.63;5048039;28;20206;-74
2021/09/09 03:24:27;;;;;;;17.43;14.97;;;;;;;13.50;80.17;100537.94;5045161;28;20645;-73
2021/09/09 03:26:54;;;;;;;16.63;14.83;;;;;;;13.49;80.20;100533.56;5048516;28;20226;-73
2021/09/09 03:29:20;;;;;;;17.67;15.03;;;;;;;13.48;80.21;100531.84;5045095;28;20202;-73
2021/09/09 03:31:47;;;;;;;19.83;13.60;;;;;;;13.48;80.24;100540.72;5049219;28;20579;-74
2021/09/09 03:34:13;;;;;;;15.77;14.07;;;;;;;13.47;79.98;100533.69;5049294;28;20209;-73
2021/09/09 03:36:40;;;;;;;17.17;14.10;;;;;;;13.44;79.99;100531.22;5047392;28;20879;-73
2021/09/09 03:39:06;;;;;;;20.57;15.13;;;;;;;13.42;79.78;100529.69;5048805;28;20197;-74
2021/09/09 03:41:34;;;;;;;17.30;13.73;;;;;;;13.40;80.11;100526.25;5042916;28;20213;-73
2021/09/09 03:44:01;;;;;;;19.57;14.80;;;;;;;13.38;80.12;100523.69;5049734;28;20240;-74
2021/09/09 03:46:28;;;;;;;15.20;13.67;;;;;;;13.38;80.26;100518.34;5049586;28;20737;-74
2021/09/09 03:48:54;;;;;;;16.67;14.90;;;;;;;13.38;80.40;100518.34;5048668;28;20197;-72
2021/09/09 03:51:21;;;;;;;20.77;16.90;;;;;;;13.37;80.47;100521.13;5049366;28;20717;-73
2021/09/09 03:53:47;;;;;;;17.40;15.43;;;;;;;13.36;80.12;100516.75;5049165;28;20201;-74
2021/09/09 03:56:14;;;;;;;16.93;15.07;;;;;;;13.34;80.27;100510.66;5048326;28;20239;-74
2021/09/09 03:58:41;;;;;;;20.27;15.17;;;;;;;13.32;80.69;100515.28;5048438;28;20212;-74
2021/09/09 04:01:08;;;;;;;20.30;15.60;;;;;;;13.30;80.58;100515.41;5054272;28;20204;-72
2021/09/09 04:03:34;;;;;;;18.90;16.43;;;;;;;13.29;80.82;100512.84;5048535;28;20201;-72
2021/09/09 04:06:01;;;;;;;21.27;15.60;;;;;;;13.27;80.55;100510.28;5045285;28;20230;-72
2021/09/09 04:08:27;;;;;;;17.33;15.47;;;;;;;13.27;81.02;100512.94;5042507;28;20206;-73
2021/09/09 04:10:54;;;;;;;21.60;16.40;;;;;;;13.27;80.91;100509.44;5051548;28;20662;-72
2021/09/09 04:13:21;;;;;;;19.83;16.60;;;;;;;13.26;80.97;100502.38;5058939;28;20207;-73
2021/09/09 04:15:48;;;;;;;20.70;16.87;;;;;;;13.25;80.83;100506.91;5044104;28;20590;-72
2021/09/09 04:18:15;;;;;;;22.23;17.87;;;;;;;13.18;80.84;100503.81;5047454;28;20579;-72
2021/09/09 04:20:41;;;;;;;22.43;18.03;;;;;;;13.14;80.86;100505.00;5045996;28;20206;-71
2021/09/09 04:23:08;;;;;;;21.70;16.70;;;;;;;13.11;81.07;100507.03;5046897;28;20208;-73
2021/09/09 04:25:34;;;;;;;24.10;17.70;;;;;;;13.09;81.32;100504.47;5045525;28;20221;-72
2021/09/09 04:28:01;;;;;;;20.67;17.90;;;;;;;13.07;81.60;100503.78;5048375;28;20208;-72
2021/09/09 04:30:27;;;;;;;19.57;16.87;;;;;;;13.08;82.05;100508.13;5047053;28;20209;-72
2021/09/09 04:32:55;;;;;;;21.27;17.03;;;;;;;13.07;82.00;100503.78;5042575;28;20200;-72
2021/09/09 04:35:22;;;;;;;20.03;17.50;;;;;;;13.06;81.78;100502.06;5048528;28;20202;-72
2021/09/09 04:37:48;;;;;;;18.90;16.90;;;;;;;13.03;81.88;100491.59;5047470;28;20214;-73
2021/09/09 04:40:15;;;;;;;19.37;16.40;;;;;;;12.99;82.08;100499.97;5044735;28;20214;-72
2021/09/09 04:42:41;;;;;;;19.60;16.20;;;;;;;12.94;81.84;100502.13;5047842;28;20204;-73
2021/09/09 04:45:09;;;;;;;20.00;16.30;;;;;;;12.91;82.15;100505.03;5044929;28;20699;-72
2021/09/09 04:47:36;;;;;;;20.10;16.97;;;;;;;12.87;82.03;100499.09;5044718;28;20588;-72
2021/09/09 04:50:06;;;;;;;21.60;18.40;;;;;;;12.85;82.48;100498.34;5046120;28;20212;-72
2021/09/09 04:52:32;;;;;;;27.63;18.07;;;;;;;12.85;82.68;100496.53;5046516;28;20206;-71
2021/09/09 04:54:59;;;;;;;21.17;17.47;;;;;;;12.86;82.53;100495.56;5039257;28;20197;-72
2021/09/09 04:57:25;;;;;;;21.00;17.17;;;;;;;12.87;82.77;100488.38;5047542;28;20805;-73
2021/09/09 04:59:52;;;;;;;22.03;17.80;;;;;;;12.86;82.99;100487.53;5046124;28;20204;-73
2021/09/09 05:02:18;;;;;;;19.10;16.70;;;;;;;12.86;82.67;100489.34;5042407;28;20298;-73
2021/09/09 05:04:45;;;;;;;19.57;16.67;;;;;;;12.83;83.07;100490.44;5042307;28;20723;-73
2021/09/09 05:07:13;;;;;;;25.50;17.60;;;;;;;12.83;83.11;100489.56;5048586;28;20229;-73
2021/09/09 05:09:39;;;;;;;22.83;18.37;;;;;;;12.83;83.18;100489.56;5044782;28;20213;-71
2021/09/09 05:12:06;;;;;;;24.43;18.30;;;;;;;12.84;83.24;100488.63;5041570;28;20454;-72
2021/09/09 05:14:34;;;;;;;20.83;17.53;;;;;;;12.84;83.61;100477.91;5044342;28;20578;-72
2021/09/09 05:17:01;;;;;;;22.30;17.53;;;;;;;12.85;83.78;100482.31;5039251;28;20320;-72
2021/09/09 05:19:28;;;;;;;26.63;18.07;;;;;;;12.85;84.10;100482.31;5044181;28;20282;-72
2021/09/09 05:21:54;;;;;;;23.60;18.43;;;;;;;12.86;84.00;100479.50;5043973;28;20647;-72
2021/09/09 05:24:22;;;;;;;23.67;18.47;;;;;;;12.88;84.08;100475.88;5045669;28;20201;-72
2021/09/09 05:26:48;;;;;;;25.53;18.90;;;;;;;12.92;84.35;100471.97;5058395;22;20230;-74
2021/09/09 05:29:15;;;;;;;21.87;18.40;;;;;;;12.95;84.57;100467.25;5045932;28;20413;-74
2021/09/09 05:31:41;;;;;;;26.17;18.73;;;;;;;12.97;84.65;100465.31;5051104;28;20207;-74
2021/09/09 05:34:08;;;;;;;24.80;19.97;;;;;;;13.01;85.08;100466.81;5049961;28;20289;-74
2021/09/09 05:36:35;;;;;;;24.33;19.27;;;;;;;13.07;85.04;100470.84;5061041;28;20232;-75
2021/09/09 05:39:01;;;;;;;27.93;19.53;;;;;;;13.12;85.62;100469.50;5052466;28;20596;-75
2021/09/09 05:41:29;;;;;;;26.40;18.93;;;;;;;13.20;85.65;100476.97;5049723;28;20578;-75
2021/09/09 05:43:56;;;;;;;24.23;18.67;;;;;;;13.28;85.46;100479.88;5051092;28;20591;-75
2021/09/09 05:46:22;;;;;;;24.57;19.70;;;;;;;13.36;85.95;100479.31;5042309;28;20609;-74
2021/09/09 05:48:49;;;;;;;22.80;18.97;;;;;;;13.44;86.01;100479.56;5050853;28;20203;-75
2021/09/09 05:51:16;;;;;;;24.50;18.90;;;;;;;13.54;85.80;100480.56;5051825;28;20212;-74
2021/09/09 05:53:42;;;;;;;23.80;18.37;;;;;;;13.62;86.30;100480.78;5049886;28;20210;-75
2021/09/09 05:56:09;;;;;;;23.50;19.37;;;;;;;13.71;86.36;100471.19;5047848;28;20230;-74
2021/09/09 05:58:38;;;;;;;24.40;19.37;;;;;;;13.81;86.67;100475.69;5050681;28;20264;-74
2021/09/09 06:01:05;;;;;;;22.60;18.20;;;;;;;13.92;86.46;100482.88;5051758;28;20241;-75
2021/09/09 06:03:31;;;;;;;21.90;18.33;;;;;;;14.01;86.34;100467.88;5055582;28;20596;-75
2021/09/09 06:06:03;;;;;;;25.23;18.67;;;;;;;14.11;86.42;100467.03;5049377;28;20249;-75
2021/09/09 06:08:30;;;;;;;19.73;16.93;;;;;;;14.24;86.57;100470.41;5051610;28;20216;-74
2021/09/09 06:10:57;;;;;;;22.87;17.17;;;;;;;14.35;86.43;100469.53;5051084;28;20211;-75
2021/09/09 06:13:24;;;;;;;22.87;17.57;;;;;;;14.45;85.91;100456.28;5050373;28;20201;-75
2021/09/09 06:15:52;;;;;;;24.17;18.97;;;;;;;14.55;85.93;100462.56;5049731;28;20231;-75
2021/09/09 06:18:19;;;;;;;20.50;17.80;;;;;;;14.68;85.71;100465.94;5051391;28;20293;-75
2021/09/09 06:20:46;;;;;;;19.57;17.53;;;;;;;14.78;85.78;100466.88;5051187;28;20205;-75
2021/09/09 06:23:13;;;;;;;20.53;18.40;;;;;;;14.88;85.36;100464.25;5050016;28;20304;-75
2021/09/09 06:25:40;;;;;;;20.27;17.37;;;;;;;14.99;85.22;100461.53;5047744;28;20222;-74
2021/09/09 06:28:06;;;;;;;20.77;17.27;;;;;;;15.10;85.15;100458.78;5050398;28;20233;-73
2021/09/09 06:30:33;;;;;;;21.07;16.53;;;;;;;15.20;84.86;100462.41;5050319;28;20289;-74
2021/09/09 06:33:01;;;;;;;20.00;16.97;;;;;;;15.31;84.53;100456.09;5050426;28;20205;-73
2021/09/09 06:35:29;;;;;;;17.17;15.33;;;;;;;15.40;83.94;100460.69;5049090;28;20663;-74
2021/09/09 06:37:55;;;;;;;17.37;15.50;;;;;;;15.51;83.92;100463.28;5050634;28;20217;-74
2021/09/09 06:40:22;;;;;;;20.30;16.20;;;;;;;15.62;83.09;100459.69;5050552;28;20677;-74
2021/09/09 06:42:49;;;;;;;17.07;15.10;;;;;;;15.73;82.75;100459.63;5048285;28;20248;-74
2021/09/09 06:45:16;;;;;;;17.27;15.47;;;;;;;15.84;82.67;100453.28;5051024;28;20315;-74
2021/09/09 06:47:43;;;;;;;17.27;14.70;;;;;;;15.97;81.97;100454.75;5049912;28;20245;-74
2021/09/09 06:50:11;;;;;;;17.17;14.80;;;;;;;16.10;81.73;100453.66;5050228;28;20203;-74
2021/09/09 06:52:38;;;;;;;17.93;14.93;;;;;;;16.21;81.39;100451.72;5038809;28;20230;-74
2021/09/09 06:55:05;;;;;;;16.97;15.00;;;;;;;16.37;81.39;100461.91;5050169;28;20712;-74
2021/09/09 06:57:32;;;;;;;19.43;15.33;;;;;;;16.52;81.36;100449.75;5047463;28;20338;-74
2021/09/09 06:59:59;;;;;;;17.87;14.37;;;;;;;16.67;80.87;100451.06;5041592;28;20286;-74
2021/09/09 07:02:25;;;;;;;19.13;14.73;;;;;;;16.80;80.55;100453.50;5044162;28;20706;-74
2021/09/09 07:04:52;;;;;;;16.40;14.63;;;;;;;16.95;80.15;100454.78;5040440;28;20301;-74
2021/09/09 07:07:20;;;;;;;14.70;13.27;;;;;;;17.08;79.42;100459.84;5046514;28;20257;-74
2021/09/09 07:09:46;;;;;;;14.80;12.63;;;;;;;17.20;78.86;100461.38;5044977;28;20207;-74
2021/09/09 07:12:13;;;;;;;13.60;12.23;;;;;;;17.34;78.07;100457.41;5044773;28;20295;-74
2021/09/09 07:14:40;;;;;;;15.77;12.70;;;;;;;17.47;77.63;100454.41;5051226;28;20198;-74
2021/09/09 07:17:06;;;;;;;12.30;10.90;;;;;;;17.63;76.87;100458.16;5045680;28;20312;-75
2021/09/09 07:19:33;;;;;;;12.17;10.97;;;;;;;17.77;75.80;100453.31;5045483;28;20215;-74
2021/09/09 07:21:59;;;;;;;12.40;11.10;;;;;;;17.87;74.71;100452.31;5055643;28;20212;-74
2021/09/09 07:24:27;;;;;;;11.90;10.53;;;;;;;18.02;73.98;100448.09;5047005;28;20210;-74
2021/09/09 07:26:54;;;;;;;13.80;11.20;;;;;;;18.16;73.28;100449.44;5048088;28;20305;-75
2021/09/09 07:29:21;;;;;;;15.67;11.20;;;;;;;18.31;72.71;100444.38;5053539;28;20264;-74
2021/09/09 07:31:48;;;;;;;14.00;11.17;;;;;;;18.48;72.27;100451.66;5050505;28;20205;-74
2021/09/09 07:34:15;;;;;;;12.77;10.27;;;;;;;18.65;71.59;100448.13;5045798;28;20573;-74
2021/09/09 07:36:41;;;;;;;11.70;10.40;;;;;;;18.81;71.00;100443.94;5046036;28;20217;-74
2021/09/09 07:39:09;;;;;;;12.87;10.40;;;;;;;18.95;70.22;100451.47;5043135;28;20236;-74
2021/09/09 07:41:37;;;;;;;15.47;11.43;;;;;;;19.10;70.05;100449.91;5050747;28;20639;-74
2021/09/09 07:44:04;;;;;;;11.53;10.33;;;;;;;19.25;69.20;100451.03;5043861;28;20205;-75
2021/09/09 07:46:31;;;;;;;13.83;11.57;;;;;;;19.37;68.95;100463.25;5038155;28;20711;-74
2021/09/09 07:48:57;;;;;;;15.50;12.13;;;;;;;19.54;68.26;100452.59;5043079;28;20215;-74
2021/09/09 07:51:24;;;;;;;14.27;12.17;;;;;;;19.69;67.78;100449.16;5042104;28;20583;-74
2021/09/09 07:53:51;;;;;;;15.27;13.67;;;;;;;19.85;67.18;100439.44;5041067;28;20296;-75
2021/09/09 07:56:17;;;;;;;22.73;13.70;;;;;;;19.98;66.22;100440.66;5045059;28;20700;-74
2021/09/09 07:58:49;;;;;;;17.13;13.43;;;;;;;20.13;65.75;100445.44;5041476;28;21192;-75
2021/09/09 08:01:17;;;;;;;16.73;12.70;;;;;;;20.29;65.40;100440.09;5045622;28;20231;-74
2021/09/09 08:03:44;;;;;;;14.83;12.33;;;;;;;20.44;65.16;100446.56;5052671;28;20600;-74
2021/09/09 08:06:11;;;;;;;16.90;12.57;;;;;;;20.63;64.71;100445.44;5052545;28;20615;-74
2021/09/09 08:08:38;;;;;;;15.30;12.47;;;;;;;20.80;63.87;100442.56;5041949;28;20203;-74
2021/09/09 08:11:05;;;;;;;15.90;12.90;;;;;;;20.96;62.81;100439.03;5041722;28;20199;-75
2021/09/09 08:13:32;;;;;;;14.40;11.20;;;;;;;21.12;62.70;100435.50;5046285;28;20273;-75
2021/09/09 08:16:00;;;;;;;14.35;11.68;;;;;;;21.32;62.53;100441.41;5042684;28;20272;-75
2021/09/09 08:18:26;;;;;;;15.73;12.27;;;;;;;21.51;61.98;100440.19;5050207;28;20843;-74
2021/09/09 08:20:54;;;;;;;17.13;11.98;;;;;;;21.70;61.30;100445.22;5039203;28;20297;-75
2021/09/09 08:23:21;;;;;;;13.80;11.13;;;;;;;21.90;60.70;100441.09;5047703;28;20478;-75
2021/09/09 08:25:47;;;;;;;13.48;10.38;;;;;;;22.09;59.89;100446.13;5047206;28;20694;-75
2021/09/09 08:28:16;;;;;;;13.25;10.95;;;;;;;22.26;59.20;100435.19;5048252;28;20745;-75
2021/09/09 08:30:43;;;;;;;15.10;10.15;;;;;;;22.44;58.49;100435.78;5043148;28;20252;-75
2021/09/09 08:33:11;;;;;;;12.15;9.07;;;;;;;22.59;57.48;100433.97;5049704;28;20202;-75
2021/09/09 08:35:40;;;;;;;10.32;9.02;;;;;;;22.72;56.39;100436.13;5047944;28;20240;-75
2021/09/09 08:38:07;;;;;;;11.05;9.00;;;;;;;22.85;55.68;100429.06;5048689;28;20214;-75
2021/09/09 08:40:36;;;;;;;9.40;8.40;;;;;;;22.99;55.11;100432.00;5048704;28;20213;-75
2021/09/09 08:43:03;;;;;;;8.73;7.82;;;;;;;23.12;54.75;100430.34;5039986;28;20237;-75
2021/09/09 08:45:29;;;;;;;10.13;7.85;;;;;;;23.29;54.57;100427.50;5047838;28;20265;-74
2021/09/09 08:48:01;;;;;;;10.38;7.57;;;;;;;23.43;53.71;100422.09;5048587;28;20240;-74
2021/09/09 08:50:29;;;;;;;9.50;7.78;;;;;;;23.58;53.66;100416.69;5052574;28;20209;-76
2021/09/09 08:52:56;;;;;;;11.82;7.35;;;;;;;23.77;53.50;100423.44;5047286;28;20655;-75
2021/09/09 08:55:22;;;;;;;9.48;7.82;;;;;;;23.94;53.08;100411.34;5042454;28;20248;-75
2021/09/09 08:57:49;;;;;;;9.02;7.85;;;;;;;;;;5043650;28;20248;-73
2021/09/09 09:00:16;;;;;;;12.25;8.13;;;;;;;24.27;51.78;100416.38;5045513;28;20208;-74
2021/09/09 09:02:50;;;;;;;7.88;7.05;;;;;;;24.44;51.83;100415.09;5046073;28;20220;-74
2021/09/09 09:05:17;;;;;;;8.50;7.20;;;;;;;24.55;50.72;100412.69;5045026;28;20216;-74
2021/09/09 09:07:45;;;;;;;9.88;7.53;;;;;;;24.71;50.65;100408.91;5044602;28;20225;-74
2021/09/09 09:10:12;;;;;;;7.72;7.00;;;;;;;24.83;50.20;100410.06;5036069;28;20213;-74
2021/09/09 09:12:40;;;;;;;7.40;6.70;;;;;;;25.00;49.76;100409.81;5046864;28;20202;-74
2021/09/09 09:15:15;;;;;;;7.63;6.82;;;;;;;25.16;49.42;100404.09;5044709;28;20688;-73
2021/09/09 09:17:56;;;;;;;7.53;6.80;;;;;;;25.30;48.84;100397.69;5042627;28;20221;-74
2021/09/09 09:20:25;;;;;;;9.27;6.72;;;;;;;25.42;48.21;100400.72;5042633;28;20213;-74
2021/09/09 09:22:54;;;;;;;10.95;6.10;;;;;;;25.55;47.42;100396.19;5044929;28;20651;-74
2021/09/09 09:25:44;;;;;;;7.22;6.53;;;;;;;25.63;46.74;100388.91;5043747;28;20245;-74
2021/09/09 09:28:11;;;;;;;9.95;7.10;;;;;;;25.66;45.98;100389.34;5039551;28;20221;-74
2021/09/09 09:30:38;;;;;;;7.38;6.57;;;;;;;25.78;46.00;100389.63;5042414;28;20216;-74
2021/09/09 09:33:04;;;;;;;7.82;7.07;;;;;;;25.90;45.94;100385.28;5041061;28;20202;-74
2021/09/09 09:35:31;;;;;;;7.57;6.68;;;;;;;26.00;45.56;100380.28;5040746;28;20205;-74
2021/09/09 09:38:03;;;;;;;8.45;6.60;;;;;;;26.09;44.66;100383.69;5046552;28;20722;-73
2021/09/09 09:40:31;;;;;;;8.48;6.78;;;;;;;26.17;44.53;100373.41;5040792;28;20298;-74
2021/09/09 09:42:59;;;;;;;7.35;6.65;;;;;;;26.28;44.61;100382.91;5036605;28;20216;-74
2021/09/09 09:45:26;;;;;;;8.07;6.75;;;;;;;26.41;44.51;100377.50;5038752;28;20210;-74
2021/09/09 09:47:53;;;;;;;6.65;6.05;;;;;;;26.50;43.96;100378.16;5035463;28;20613;-74
2021/09/09 09:50:21;;;;;;;6.60;6.00;;;;;;;26.57;43.48;100365.34;5041674;28;20198;-74
2021/09/09 09:52:49;;;;;;;9.77;6.28;;;;;;;26.66;43.73;100369.56;5040445;28;20267;-74
2021/09/09 09:55:17;;;;;;;6.95;6.32;;;;;;;26.72;43.29;100376.06;5039628;28;20293;-74
2021/09/09 09:57:53;;;;;;;7.90;5.95;;;;;;;26.82;43.52;100374.63;5048925;28;20229;-74
2021/09/09 10:00:21;;;;;;;8.88;6.13;;;;;;;26.87;42.76;100377.53;5037466;28;20198;-72
2021/09/09 10:02:48;;;;;;;6.95;6.10;;;;;;;26.90;43.16;100374.41;5046373;28;20634;-72
2021/09/09 10:05:15;;;;;;;7.65;6.90;;;;;;;26.95;43.73;100361.00;5041947;28;20214;-73
2021/09/09 10:07:41;;;;;;;7.07;6.38;;;;;;;27.02;42.99;100365.63;5043559;28;20223;-73
2021/09/09 10:10:09;;;;;;;6.72;6.13;;;;;;;27.04;42.81;100367.09;5042931;28;20202;-75
2021/09/09 10:12:37;;;;;;;7.03;6.05;;;;;;;27.08;42.80;100359.28;5038287;28;20209;-72
2021/09/09 10:15:07;;;;;;;7.03;6.43;;;;;;;27.13;42.41;100356.78;5047077;28;20681;-73
2021/09/09 10:17:34;;;;;;;6.63;5.97;;;;;;;27.15;42.74;100354.66;5043732;28;20218;-72
2021/09/09 10:20:28;;;;;;;7.13;6.47;;;;;;;27.20;42.22;100357.63;5042675;28;20197;-72
2021/09/09 10:23:03;;;;;;;7.13;6.43;;;;;;;27.19;42.06;100364.13;5047985;28;20686;-72
2021/09/09 10:25:46;;;;;;;6.93;6.25;;;;;;;27.20;42.40;100357.63;5041061;28;20202;-73
2021/09/09 10:28:43;;;;;;;7.60;6.53;;;;;;;27.21;41.98;100362.88;5037123;28;20269;-73
2021/09/09 10:31:11;;;;;;;6.65;5.90;;;;;;;27.25;42.20;100361.38;5043396;28;20202;-73
2021/09/09 10:33:45;;;;;;;6.93;6.22;;;;;;;27.28;42.22;100358.22;5049030;28;20205;-72
2021/09/09 10:36:38;;;;;;;10.55;6.55;;;;;;;27.31;42.03;100348.75;5043525;28;20307;-75
2021/09/09 10:39:06;;;;;;;6.57;6.05;;;;;;;27.35;41.86;100351.91;5042503;28;20205;-75
2021/09/09 10:41:32;;;;;;;7.28;6.60;;;;;;;27.40;42.06;100343.91;5047246;28;20204;-75
2021/09/09 10:44:01;;;;;;;7.07;6.20;;;;;;;27.45;42.08;100350.41;5049153;28;20205;-74
2021/09/09 10:46:33;;;;;;;7.45;6.10;;;;;;;27.50;41.98;100345.13;5047144;28;20240;-75
2021/09/09 10:49:17;;;;;;;7.57;6.22;;;;;;;27.56;42.00;100337.97;5041332;28;20204;-75
2021/09/09 10:52:09;;;;;;;7.72;6.38;;;;;;;27.61;42.06;100339.00;5047867;28;20216;-75
2021/09/09 10:55:02;;;;;;;8.65;6.70;;;;;;;27.62;41.50;100346.16;5034452;28;20206;-74
2021/09/09 10:57:28;;;;;;;7.68;6.55;;;;;;;27.64;41.75;100349.53;5045153;28;20222;-75
2021/09/09 10:59:57;;;;;;;7.13;6.35;;;;;;;27.69;41.85;100342.59;5049810;28;20215;-74
2021/09/09 11:02:23;;;;;;;7.97;6.88;;;;;;;27.71;41.75;100335.00;5054949;28;20210;-75
2021/09/09 11:04:50;;;;;;;7.57;6.82;;;;;;;27.73;41.50;100341.09;5052409;28;20213;-75
2021/09/09 11:07:22;;;;;;;8.18;6.53;;;;;;;27.76;41.34;100335.19;5055019;28;20320;-75
2021/09/09 11:09:58;;;;;;;8.68;6.30;;;;;;;27.78;42.18;100333.06;5050826;28;20296;-75
2021/09/09 11:12:25;;;;;;;7.95;7.25;;;;;;;27.83;42.57;100330.53;5044291;28;20201;-74
2021/09/09 11:14:52;;;;;;;9.23;6.85;;;;;;;27.89;42.09;100325.03;5048146;28;20214;-74
2021/09/09 11:17:19;;;;;;;6.88;6.28;;;;;;;27.96;42.26;100333.19;5056109;28;20239;-74